createdAt,value
2018-05-04T00:00:13.422Z,6.72
2018-05-04T00:02:42.204Z,18.30
2018-05-04T00:05:10.516Z,11.43
2018-05-04T00:07:38.853Z,7.40
2018-05-04T00:10:07.970Z,10.60
2018-05-04T00:12:36.304Z,5.32
2018-05-04T00:15:04.604Z,9.80
2018-05-04T00:17:32.957Z,12.57
2018-05-04T00:20:01.292Z,9.32
2018-05-04T00:22:29.655Z,15.57
2018-05-04T00:24:58.037Z,17.30
2018-05-04T00:27:26.365Z,8.68
2018-05-04T00:29:54.691Z,8.73
2018-05-04T00:32:24.523Z,9.70
2018-05-04T00:34:52.848Z,14.70
2018-05-04T00:37:21.204Z,15.48
2018-05-04T00:39:49.579Z,7.90
2018-05-04T00:42:17.928Z,16.73
2018-05-04T00:44:46.296Z,12.10
2018-05-04T00:47:14.816Z,12.85
2018-05-04T00:49:43.131Z,13.20
2018-05-04T00:52:11.616Z,9.15
2018-05-04T00:54:39.976Z,17.55
2018-05-04T00:57:08.313Z,8.30
2018-05-04T00:59:36.640Z,9.48
2018-05-04T01:02:05.985Z,15.20
2018-05-04T01:04:34.332Z,6.78
2018-05-04T01:07:02.667Z,11.18
2018-05-04T01:09:31.126Z,12.82
2018-05-04T01:11:59.492Z,14.30
2018-05-04T01:14:27.817Z,7.50
2018-05-04T01:16:56.540Z,11.18
2018-05-04T01:19:24.976Z,14.90
2018-05-04T01:21:53.297Z,9.85
2018-05-04T01:24:22.335Z,14.87
2018-05-04T01:26:50.823Z,10.30
2018-05-04T01:29:19.407Z,12.88
2018-05-04T01:31:49.207Z,12.13
2018-05-04T01:34:18.279Z,18.45
2018-05-04T01:36:47.054Z,27.05
2018-05-04T01:39:15.435Z,18.75
2018-05-04T01:41:43.829Z,11.63
2018-05-04T01:44:12.473Z,14.40
2018-05-04T01:46:43.085Z,21.08
2018-05-04T01:49:12.428Z,18.75
2018-05-04T01:51:40.945Z,24.58
2018-05-04T01:54:10.728Z,20.08
2018-05-04T01:56:39.342Z,24.58
2018-05-04T01:59:07.863Z,14.68
2018-05-04T02:01:36.222Z,13.15
2018-05-04T02:04:04.630Z,21.50
2018-05-04T02:06:33.053Z,12.20
2018-05-04T02:09:02.384Z,22.75
2018-05-04T02:11:30.862Z,21.67
2018-05-04T02:13:59.741Z,27.35
2018-05-04T02:16:28.336Z,22.73
2018-05-04T02:18:57.538Z,17.70
2018-05-04T02:21:26.285Z,18.27
2018-05-04T02:23:56.136Z,21.05
2018-05-04T02:26:25.799Z,21.70
2018-05-04T02:28:54.193Z,17.05
2018-05-04T02:31:22.576Z,29.83
2018-05-04T02:33:52.328Z,23.58
2018-05-04T02:36:21.072Z,14.02
2018-05-04T02:38:49.674Z,27.17
2018-05-04T02:41:21.128Z,18.77
2018-05-04T02:43:50.804Z,19.27
2018-05-04T02:46:20.233Z,26.62
2018-05-04T02:48:52.708Z,32.33
2018-05-04T02:51:21.348Z,20.00
2018-05-04T02:53:51.228Z,20.58
2018-05-04T02:56:20.694Z,31.77
2018-05-04T02:58:50.255Z,14.65
2018-05-04T03:01:19.059Z,16.87
2018-05-04T03:03:49.483Z,23.87
2018-05-04T03:06:19.171Z,19.77
2018-05-04T03:08:49.487Z,27.75
2018-05-04T03:11:18.060Z,34.15
2018-05-04T03:13:46.470Z,16.00
2018-05-04T03:16:14.824Z,15.07
2018-05-04T03:18:43.240Z,15.57
2018-05-04T03:21:11.820Z,13.73
2018-05-04T03:23:42.148Z,19.40
2018-05-04T03:26:10.478Z,17.30
2018-05-04T03:28:39.403Z,29.12
2018-05-04T03:31:08.642Z,23.58
2018-05-04T03:33:37.077Z,20.00
2018-05-04T03:36:05.599Z,21.73
2018-05-04T03:38:33.940Z,28.58
2018-05-04T03:41:03.561Z,20.98
2018-05-04T03:43:33.886Z,9.75
2018-05-04T03:46:02.233Z,22.33
2018-05-04T03:48:30.572Z,23.25
2018-05-04T03:50:58.888Z,21.17
2018-05-04T03:53:27.264Z,21.70
2018-05-04T03:55:55.676Z,22.48
2018-05-04T03:58:35.905Z,19.17
2018-05-04T04:01:16.461Z,14.65
2018-05-04T04:03:57.711Z,13.25
2018-05-04T04:06:26.116Z,23.55
2018-05-04T04:08:55.417Z,14.98
2018-05-04T04:11:24.591Z,20.73
2018-05-04T04:13:53.476Z,14.50
2018-05-04T04:16:22.736Z,18.85
2018-05-04T04:18:51.394Z,15.85
2018-05-04T04:21:22.245Z,37.08
2018-05-04T04:23:52.468Z,28.42
2018-05-04T04:26:22.570Z,15.65
2018-05-04T04:28:51.909Z,19.67
2018-05-04T04:31:21.856Z,32.03
2018-05-04T04:33:50.817Z,21.77
2018-05-04T04:36:21.087Z,35.58
2018-05-04T04:38:50.179Z,35.45
2018-05-04T04:41:19.718Z,27.10
2018-05-04T04:43:49.296Z,32.80
2018-05-04T04:46:17.729Z,13.85
2018-05-04T04:48:46.056Z,26.48
2018-05-04T04:51:15.515Z,27.05
2018-05-04T04:53:44.152Z,29.67
2018-05-04T04:56:12.674Z,36.30
2018-05-04T04:58:41.937Z,22.50
2018-05-04T05:01:10.412Z,26.55
2018-05-04T05:03:38.780Z,32.30
2018-05-04T05:06:07.156Z,17.77
2018-05-04T05:08:35.542Z,19.17
2018-05-04T05:11:03.873Z,19.80
2018-05-04T05:13:32.283Z,24.30
2018-05-04T05:16:00.651Z,24.42
2018-05-04T05:18:29.122Z,20.75
2018-05-04T05:20:57.631Z,36.70
2018-05-04T05:23:26.386Z,20.35
2018-05-04T05:25:55.531Z,19.83
2018-05-04T05:28:25.277Z,23.27
2018-05-04T05:30:54.260Z,19.20
2018-05-04T05:33:22.646Z,21.12
2018-05-04T05:35:51.104Z,20.60
2018-05-04T05:38:20.286Z,27.30
2018-05-04T05:40:48.818Z,16.33
2018-05-04T05:43:17.383Z,25.48
2018-05-04T05:45:46.631Z,28.45
2018-05-04T05:48:15.481Z,21.30
2018-05-04T05:50:47.873Z,18.23
2018-05-04T05:53:18.617Z,19.62
2018-05-04T05:55:49.925Z,23.73
2018-05-04T05:58:20.323Z,22.65
2018-05-04T06:03:26.275Z,27.77
2018-05-04T06:05:55.962Z,17.02
2018-05-04T06:08:24.416Z,18.00
2018-05-04T06:10:54.397Z,17.08
2018-05-04T06:13:24.386Z,26.08
2018-05-04T06:15:52.857Z,21.30
2018-05-04T06:18:21.196Z,37.95
2018-05-04T06:20:49.836Z,21.15
2018-05-04T06:23:18.384Z,14.45
2018-05-04T06:25:46.806Z,17.20
2018-05-04T06:28:15.326Z,15.93
2018-05-04T06:30:43.798Z,14.50
2018-05-04T06:33:12.193Z,13.45
2018-05-04T06:35:40.722Z,8.43
2018-05-04T06:38:10.069Z,20.58
2018-05-04T06:40:38.444Z,9.55
2018-05-04T06:43:07.593Z,25.05
2018-05-04T06:45:35.972Z,16.42
2018-05-04T06:48:04.298Z,16.17
2018-05-04T06:50:32.680Z,20.50
2018-05-04T06:53:01.107Z,17.42
2018-05-04T06:55:29.507Z,14.45
2018-05-04T06:57:58.297Z,17.40
2018-05-04T07:00:26.703Z,11.15
2018-05-04T07:02:55.054Z,18.42
2018-05-04T07:05:23.841Z,7.60
2018-05-04T07:07:52.191Z,9.10
2018-05-04T07:10:20.676Z,13.47
2018-05-04T07:12:49.438Z,10.00
2018-05-04T07:15:18.044Z,12.10
2018-05-04T07:17:46.396Z,11.33
2018-05-04T07:20:15.137Z,7.60
2018-05-04T07:22:43.577Z,13.70
2018-05-04T07:25:11.985Z,12.57
2018-05-04T07:27:40.346Z,14.10
2018-05-04T07:30:08.699Z,5.90
2018-05-04T07:32:37.121Z,6.77
2018-05-04T07:35:05.467Z,13.17
2018-05-04T07:37:33.817Z,8.03
2018-05-04T07:40:02.139Z,6.70
2018-05-04T07:42:30.555Z,13.10
2018-05-04T07:44:58.897Z,3.90
2018-05-04T07:47:27.218Z,7.40
2018-05-04T07:49:55.624Z,5.60
2018-05-04T07:52:23.956Z,9.53
2018-05-04T07:54:52.275Z,5.80
2018-05-04T07:57:21.564Z,11.27
2018-05-04T07:59:49.925Z,6.47
2018-05-04T08:02:18.768Z,6.53
2018-05-04T08:04:47.214Z,4.43
2018-05-04T08:07:15.822Z,4.53
2018-05-04T08:09:44.217Z,6.73
2018-05-04T08:12:13.093Z,8.43
2018-05-04T08:14:41.436Z,3.17
2018-05-04T08:17:09.763Z,13.30
2018-05-04T08:19:38.367Z,4.93
2018-05-04T08:22:06.686Z,5.53
2018-05-04T08:24:35.015Z,5.17
2018-05-04T08:27:03.532Z,6.13
2018-05-04T08:29:32.817Z,5.40
2018-05-04T08:32:01.141Z,6.73
2018-05-04T08:34:29.517Z,4.97
2018-05-04T08:36:57.853Z,5.83
2018-05-04T08:39:26.184Z,6.13
2018-05-04T08:41:55.294Z,5.37
2018-05-04T08:44:23.624Z,4.43
2018-05-04T08:46:52.082Z,6.90
2018-05-04T08:49:20.508Z,4.30
2018-05-04T08:51:49.021Z,7.30
2018-05-04T08:54:17.488Z,5.07
2018-05-04T08:56:46.802Z,8.63
2018-05-04T08:59:15.574Z,8.80
2018-05-04T09:01:46.760Z,6.50
2018-05-04T09:04:15.198Z,1.87
2018-05-04T09:06:43.634Z,8.03
2018-05-04T09:09:12.145Z,6.63
2018-05-04T09:11:41.115Z,1.60
2018-05-04T09:14:09.466Z,8.73
2018-05-04T09:16:37.839Z,4.90
2018-05-04T09:19:06.980Z,3.60
2018-05-04T09:21:35.404Z,2.37
2018-05-04T09:24:03.765Z,3.07
2018-05-04T09:26:32.158Z,7.60
2018-05-04T09:29:00.545Z,4.87
2018-05-04T09:31:28.898Z,3.80
2018-05-04T09:33:58.154Z,3.63
2018-05-04T09:36:26.881Z,8.83
2018-05-04T09:38:55.219Z,11.80
2018-05-04T09:41:24.287Z,4.03
2018-05-04T09:43:53.449Z,1.80
2018-05-04T09:46:21.931Z,3.90
2018-05-04T09:48:50.313Z,5.17
2018-05-04T09:51:18.690Z,16.03
2018-05-04T09:53:47.049Z,6.97
2018-05-04T09:56:15.473Z,5.93
2018-05-04T09:58:43.869Z,9.00
2018-05-04T10:01:12.316Z,8.43
2018-05-04T10:03:40.745Z,7.03
2018-05-04T10:06:09.082Z,11.53
2018-05-04T10:08:37.428Z,15.97
2018-05-04T10:11:05.802Z,8.93
2018-05-04T10:13:34.149Z,11.70
2018-05-04T10:16:02.600Z,5.33
2018-05-04T10:18:32.011Z,5.00
2018-05-04T10:21:00.337Z,13.40
2018-05-04T10:23:28.696Z,16.33
2018-05-04T10:25:57.102Z,4.77
2018-05-04T10:28:25.514Z,3.37
2018-05-04T10:30:53.944Z,8.93
2018-05-04T10:33:22.373Z,5.00
2018-05-04T10:35:50.759Z,7.27
2018-05-04T10:38:19.154Z,7.90
2018-05-04T10:40:47.539Z,8.83
2018-05-04T10:43:15.904Z,4.17
2018-05-04T10:45:44.284Z,5.00
2018-05-04T10:48:13.289Z,7.43
2018-05-04T10:50:41.671Z,5.30
2018-05-04T10:53:10.023Z,3.50
2018-05-04T10:55:38.404Z,3.57
2018-05-04T10:58:06.749Z,3.17
2018-05-04T11:00:35.159Z,6.83
2018-05-04T11:03:03.658Z,3.33
2018-05-04T11:05:31.971Z,5.93
2018-05-04T11:08:00.293Z,5.53
2018-05-04T11:10:28.917Z,3.60
2018-05-04T11:12:57.299Z,8.60
2018-05-04T11:15:25.718Z,3.00
2018-05-04T11:17:54.017Z,3.70
2018-05-04T11:20:22.533Z,7.70
2018-05-04T11:22:50.898Z,4.10
2018-05-04T11:25:20.611Z,4.37
2018-05-04T11:27:48.955Z,6.80
2018-05-04T11:30:17.302Z,2.53
2018-05-04T11:32:46.648Z,8.03
2018-05-04T11:35:15.339Z,16.87
2018-05-04T11:37:43.836Z,7.60
2018-05-04T11:40:13.907Z,8.60
2018-05-04T11:42:42.286Z,9.33
2018-05-04T11:45:10.628Z,11.50
2018-05-04T11:47:39.007Z,11.10
2018-05-04T11:50:07.362Z,10.27
2018-05-04T11:52:35.696Z,8.80
2018-05-04T11:55:04.113Z,7.10
2018-05-04T11:57:32.452Z,8.40
2018-05-04T12:00:00.769Z,9.47
2018-05-04T12:02:30.039Z,8.17
2018-05-04T12:04:58.354Z,8.77
2018-05-04T12:07:26.840Z,7.23
2018-05-04T12:09:55.420Z,9.07
2018-05-04T12:12:24.845Z,9.80
2018-05-04T12:14:53.309Z,6.60
2018-05-04T12:17:23.278Z,15.63
2018-05-04T12:19:51.702Z,12.27
2018-05-04T12:22:20.781Z,11.73
2018-05-04T12:24:49.525Z,8.10
2018-05-04T12:27:17.957Z,6.23
2018-05-04T12:29:46.334Z,6.40
2018-05-04T12:32:14.764Z,9.50
2018-05-04T12:34:43.190Z,8.10
2018-05-04T12:37:11.956Z,7.30
2018-05-04T12:39:40.900Z,10.10
2018-05-04T12:42:09.246Z,6.13
2018-05-04T12:44:37.562Z,6.83
2018-05-04T12:47:06.004Z,14.20
2018-05-04T12:49:34.425Z,8.07
2018-05-04T12:52:02.765Z,7.40
2018-05-04T12:54:31.515Z,9.87
2018-05-04T12:56:59.835Z,9.87
2018-05-04T12:59:28.256Z,5.37
2018-05-04T13:01:56.609Z,10.97
2018-05-04T13:04:25.156Z,7.87
2018-05-04T13:06:53.452Z,9.20
2018-05-04T13:09:21.911Z,10.60
2018-05-04T13:11:50.395Z,8.10
2018-05-04T13:14:19.757Z,9.80
2018-05-04T13:16:48.217Z,9.57
2018-05-04T13:19:17.192Z,10.23
2018-05-04T13:21:45.552Z,12.53
2018-05-04T13:24:14.125Z,13.00
2018-05-04T13:26:42.569Z,10.00
2018-05-04T13:29:10.993Z,10.87
2018-05-04T13:31:39.345Z,6.97
2018-05-04T13:34:07.694Z,7.30
2018-05-04T13:36:36.073Z,7.20
2018-05-04T13:39:04.509Z,6.20
2018-05-04T13:41:32.834Z,5.60
2018-05-04T13:44:01.190Z,10.50
2018-05-04T13:46:29.569Z,6.57
2018-05-04T13:48:57.887Z,5.10
2018-05-04T13:51:26.332Z,15.13
2018-05-04T13:53:55.599Z,9.00
2018-05-04T13:56:24.138Z,7.10
2018-05-04T13:58:52.467Z,9.20
2018-05-04T14:01:20.881Z,13.33
2018-05-04T14:03:49.383Z,13.23
2018-05-04T14:06:17.751Z,6.20
2018-05-04T14:08:46.486Z,14.63
2018-05-04T14:11:14.852Z,10.73
2018-05-04T14:13:43.659Z,4.93
2018-05-04T14:16:12.022Z,7.90
2018-05-04T14:21:15.617Z,11.27
2018-05-04T14:23:44.007Z,10.77
2018-05-04T14:26:12.378Z,6.70
2018-05-04T14:28:40.745Z,3.53
2018-05-04T14:31:09.074Z,11.97
2018-05-04T14:33:37.433Z,11.83
2018-05-04T14:36:05.877Z,10.30
2018-05-04T14:38:34.195Z,10.30
2018-05-04T14:41:02.545Z,6.03
2018-05-04T14:43:31.621Z,8.33
2018-05-04T14:45:59.987Z,10.50
2018-05-04T14:48:28.300Z,8.50
2018-05-04T14:50:57.575Z,8.93
2018-05-04T14:53:25.889Z,7.30
2018-05-04T14:55:54.243Z,18.30
2018-05-04T14:58:23.218Z,8.47
2018-05-04T15:00:51.700Z,11.00
2018-05-04T15:03:20.192Z,8.17
2018-05-04T15:05:48.653Z,4.00
2018-05-04T15:08:16.980Z,14.47
2018-05-04T15:10:45.522Z,8.00
2018-05-04T15:13:14.209Z,8.13
2018-05-04T15:15:42.598Z,15.53
2018-05-04T15:18:11.065Z,7.20
2018-05-04T15:20:40.305Z,13.03
2018-05-04T15:23:10.224Z,8.10
2018-05-04T15:25:38.578Z,12.40
2018-05-04T15:28:07.593Z,7.83
2018-05-04T15:30:35.936Z,19.07
2018-05-04T15:33:04.284Z,6.23
2018-05-04T15:35:32.668Z,14.73
2018-05-04T15:38:00.998Z,7.57
2018-05-04T15:40:29.452Z,8.93
2018-05-04T15:42:58.518Z,10.07
2018-05-04T15:45:26.905Z,10.13
2018-05-04T15:47:55.257Z,12.23
2018-05-04T15:50:29.261Z,9.37
2018-05-04T15:52:57.623Z,15.13
2018-05-04T15:55:25.977Z,8.10
2018-05-04T15:57:55.132Z,10.93
2018-05-04T16:00:23.488Z,9.73
2018-05-04T16:02:51.895Z,6.40
2018-05-04T16:05:20.282Z,11.23
2018-05-04T16:07:48.697Z,7.00
2018-05-04T16:10:17.089Z,4.87
2018-05-04T16:12:46.893Z,19.00
2018-05-04T16:15:15.391Z,10.17
2018-05-04T16:17:43.903Z,22.73
2018-05-04T16:20:12.400Z,13.33
2018-05-04T16:22:40.863Z,8.37
2018-05-04T16:25:09.292Z,14.23
2018-05-04T16:27:38.278Z,9.33
2018-05-04T16:30:06.600Z,4.83
2018-05-04T16:32:34.989Z,6.20
2018-05-04T16:35:03.454Z,9.30
2018-05-04T16:37:31.790Z,5.47
2018-05-04T16:40:00.123Z,11.20
2018-05-04T16:42:28.549Z,7.80
2018-05-04T16:44:56.954Z,14.70
2018-05-04T16:47:25.423Z,10.17
2018-05-04T16:49:53.847Z,9.03
2018-05-04T16:52:22.230Z,8.13
2018-05-04T16:54:50.614Z,14.67
2018-05-04T16:57:20.325Z,10.63
2018-05-04T16:59:48.805Z,11.17
2018-05-04T17:02:17.191Z,14.57
2018-05-04T17:04:45.591Z,19.83
2018-05-04T17:07:14.031Z,6.30
2018-05-04T17:09:42.498Z,10.70
2018-05-04T17:12:10.897Z,9.17
2018-05-04T17:14:39.222Z,6.30
2018-05-04T17:17:07.562Z,11.77
2018-05-04T17:19:36.739Z,9.77
2018-05-04T17:22:05.180Z,8.73
2018-05-04T17:24:33.474Z,10.53
2018-05-04T17:27:02.599Z,16.40
2018-05-04T17:29:30.963Z,11.03
2018-05-04T17:32:00.998Z,8.70
2018-05-04T17:34:30.903Z,12.30
2018-05-04T17:36:59.437Z,8.03
2018-05-04T17:39:27.869Z,9.63
2018-05-04T17:41:56.690Z,18.33
2018-05-04T17:44:25.646Z,14.13
2018-05-04T17:46:54.194Z,17.27
2018-05-04T17:49:22.959Z,13.03
2018-05-04T17:51:51.531Z,14.40
2018-05-04T17:54:21.009Z,19.83
2018-05-04T17:56:49.418Z,7.93
2018-05-04T17:59:17.803Z,24.67
2018-05-04T18:01:46.287Z,16.63
2018-05-04T18:04:16.002Z,14.70
2018-05-04T18:06:45.204Z,16.00
2018-05-04T18:09:13.792Z,16.43
2018-05-04T18:11:42.515Z,11.00
2018-05-04T18:14:10.896Z,20.70
2018-05-04T18:16:39.214Z,17.23
2018-05-04T18:19:07.595Z,17.23
2018-05-04T18:21:35.957Z,10.77
2018-05-04T18:24:04.300Z,17.87
2018-05-04T18:26:32.653Z,18.40
2018-05-04T18:29:00.986Z,19.43
2018-05-04T18:31:29.331Z,11.47
2018-05-04T18:33:57.715Z,12.63
2018-05-04T18:36:26.095Z,9.20
2018-05-04T18:38:54.428Z,18.80
2018-05-04T18:41:22.842Z,20.00
2018-05-04T18:43:51.266Z,15.87
2018-05-04T18:46:19.862Z,19.70
2018-05-04T18:48:48.660Z,11.73
2018-05-04T18:51:17.292Z,13.13
2018-05-04T18:53:45.683Z,9.03
2018-05-04T18:56:14.833Z,18.33
2018-05-04T18:58:43.463Z,7.93
2018-05-04T19:01:12.501Z,12.20
2018-05-04T19:03:40.961Z,10.83
2018-05-04T19:06:09.321Z,10.40
2018-05-04T19:08:37.675Z,11.40
2018-05-04T19:11:06.132Z,14.13
2018-05-04T19:13:34.448Z,12.60
2018-05-04T19:16:02.795Z,16.73
2018-05-04T19:18:31.998Z,9.67
2018-05-04T19:21:00.324Z,18.37
2018-05-04T19:23:28.685Z,7.70
2018-05-04T19:25:57.424Z,10.70
2018-05-04T19:28:25.841Z,7.47
2018-05-04T19:30:54.419Z,13.80
2018-05-04T19:33:23.662Z,21.83
2018-05-04T19:35:52.100Z,17.50
2018-05-04T19:38:20.593Z,8.33
2018-05-04T19:40:49.326Z,6.87
2018-05-04T19:43:17.753Z,9.20
2018-05-04T19:45:46.233Z,10.67
2018-05-04T19:48:15.053Z,4.10
2018-05-04T19:50:43.657Z,3.43
2018-05-04T19:53:12.114Z,12.40
2018-05-04T19:55:40.525Z,7.43
2018-05-04T19:58:08.873Z,12.07
2018-05-04T20:00:37.225Z,11.27
2018-05-04T20:03:05.766Z,13.50
2018-05-04T20:05:34.095Z,6.60
2018-05-04T20:08:02.465Z,11.03
2018-05-04T20:10:30.892Z,8.03
2018-05-04T20:12:59.280Z,7.37
2018-05-04T20:15:27.609Z,8.87
2018-05-04T20:17:56.703Z,9.43
2018-05-04T20:20:25.072Z,16.67
2018-05-04T20:22:53.524Z,9.00
2018-05-04T20:25:21.909Z,7.10
2018-05-04T20:27:50.337Z,11.80
2018-05-04T20:30:19.273Z,12.00
2018-05-04T20:32:48.595Z,8.93
2018-05-04T20:35:17.026Z,8.40
2018-05-04T20:37:45.965Z,15.50
2018-05-04T20:40:14.719Z,12.70
2018-05-04T20:42:43.540Z,13.77
2018-05-04T20:45:12.556Z,15.30
2018-05-04T20:47:41.090Z,9.10
2018-05-04T20:50:09.469Z,19.67
2018-05-04T20:52:37.814Z,20.73
2018-05-04T20:55:06.476Z,23.73
2018-05-04T20:57:34.828Z,30.70
2018-05-04T21:00:03.151Z,20.83
2018-05-04T21:02:31.546Z,17.40
2018-05-04T21:04:59.886Z,15.90
2018-05-04T21:07:28.206Z,14.97
2018-05-04T21:09:56.740Z,13.10
2018-05-04T21:12:26.096Z,16.40
2018-05-04T21:14:54.469Z,11.90
2018-05-04T21:17:22.952Z,28.80
2018-05-04T21:19:51.497Z,12.87
2018-05-04T21:22:19.905Z,13.67
2018-05-04T21:24:49.534Z,15.27
2018-05-04T21:27:18.015Z,11.00
2018-05-04T21:29:46.628Z,20.90
2018-05-04T21:32:15.157Z,9.90
2018-05-04T21:34:43.540Z,10.17
2018-05-04T21:37:11.869Z,7.80
2018-05-04T21:39:40.234Z,10.10
2018-05-04T21:42:08.716Z,15.40
2018-05-04T21:44:37.039Z,13.83
2018-05-04T21:47:05.458Z,19.50
2018-05-04T21:49:33.799Z,22.98
2018-05-04T21:52:02.122Z,16.70
2018-05-04T21:54:30.482Z,20.10
2018-05-04T21:56:58.837Z,14.45
2018-05-04T21:59:27.190Z,33.40
2018-05-04T22:01:55.733Z,16.95
2018-05-04T22:04:24.122Z,19.70
2018-05-04T22:06:52.461Z,17.85
2018-05-04T22:09:20.881Z,19.10
2018-05-04T22:11:49.313Z,17.65
2018-05-04T22:14:17.712Z,22.98
2018-05-04T22:16:46.736Z,11.23
2018-05-04T22:19:15.131Z,31.92
2018-05-04T22:21:43.838Z,14.50
2018-05-04T22:24:13.005Z,15.88
2018-05-04T22:26:41.345Z,15.43
2018-05-04T22:29:09.705Z,16.45
2018-05-04T22:31:38.219Z,20.98
2018-05-04T22:34:06.579Z,14.23
2018-05-04T22:36:34.930Z,17.37
2018-05-04T22:39:05.100Z,14.50
2018-05-04T22:41:33.462Z,17.00
2018-05-04T22:44:01.870Z,15.57
2018-05-04T22:46:30.237Z,11.55
2018-05-04T22:48:58.604Z,16.08
2018-05-04T22:51:27.008Z,15.93
2018-05-04T22:53:56.106Z,16.17
2018-05-04T22:56:24.453Z,18.85
2018-05-04T23:01:44.472Z,25.65
2018-05-04T23:04:12.871Z,11.38
2018-05-04T23:06:41.206Z,24.87
2018-05-04T23:09:09.579Z,21.87
2018-05-04T23:11:37.878Z,22.13
2018-05-04T23:14:06.190Z,14.52
2018-05-04T23:16:34.538Z,19.25
2018-05-04T23:19:02.894Z,14.73
2018-05-04T23:21:31.221Z,20.10
2018-05-04T23:23:59.538Z,18.52
2018-05-04T23:26:27.861Z,16.73
2018-05-04T23:28:56.194Z,20.62
2018-05-04T23:31:24.901Z,13.93
2018-05-04T23:33:53.245Z,16.02
2018-05-04T23:36:21.674Z,24.20
2018-05-04T23:38:50.437Z,13.73
2018-05-04T23:41:20.046Z,14.38
2018-05-04T23:43:48.424Z,20.20
2018-05-04T23:46:17.538Z,11.77
2018-05-04T23:48:46.088Z,19.02
2018-05-04T23:51:15.708Z,19.95
2018-05-04T23:53:46.515Z,16.10
2018-05-04T23:56:15.886Z,16.95
2018-05-04T23:58:44.369Z,14.50
